^^
Saratoga-Weather Station Historical Data
Daily Summary for May 29, 2020 Units:  English    Metric   Both
Daily Weekly Monthly Yearly Custom
  High: Low: Average:
Temperature: 55.2 °F 48.4 °F 52 °F
Dew Point: 53.1 °F 46.2 °F 49.3 °F
Humidity: 94% 82% 90%
Wind Speed: 14.1mph 0mph 3.1mph
Wind Gust: 17mph - -
Wind- - West
Pressure: 30.1 in 29.9 in -
Precipitation: 0.49 in    
Historical Graphs
 
 
Tabular Data for May 29, 2020
Time Temperature Dew Point Pressure Wind Wind Speed Wind Gust Humidity Rainfall Rate (Hourly) solar
00:01 53.2 °F 49.5 °F 29.9 in WSW 4.9 mph 9 mph 87% 0.01 in 0 W/m2
00:06 53.2 °F 49.8 °F 29.9 in NNW 4 mph 4 mph 88% 0.01 in 0 W/m2
00:11 53.1 °F 49.6 °F 29.9 in WNW 6.9 mph 9 mph 88% 0.01 in 0 W/m2
00:16 53.1 °F 49.6 °F 29.9 in Calm   6 mph 88% 0.01 in 0 W/m2
00:21 53.1 °F 49.6 °F 29.9 in WSW 2.9 mph 11 mph 88% 0.01 in 0 W/m2
00:26 53.1 °F 49.6 °F 29.9 in WNW 4 mph 5 mph 88% 0.01 in 0 W/m2
00:31 53.1 °F 49.6 °F 29.9 in SW 6.9 mph 12 mph 88% 0.01 in 0 W/m2
00:36 53.1 °F 49.3 °F 29.9 in WNW 4 mph 12 mph 87% 0.01 in 0 W/m2
00:41 53.2 °F 49.1 °F 29.9 in NW 4.9 mph 9 mph 86% 0.01 in 0 W/m2
00:46 53.2 °F 48.9 °F 29.9 in NW 8.9 mph 12 mph 85% 0.01 in 0 W/m2
00:51 53.4 °F 49.1 °F 29.9 in NNW 2.9 mph 8 mph 85% 0.01 in 0 W/m2
00:56 53.4 °F 49.1 °F 29.9 in West 2.9 mph 8 mph 85% 0.01 in 0 W/m2
01:01 53.4 °F 49.1 °F 29.9 in NNW 4 mph 9 mph 85% 0 in 0 W/m2
01:06 53.4 °F 49.1 °F 29.9 in South 2 mph 8 mph 85% 0 in 0 W/m2
01:11 53.4 °F 49.1 °F 29.9 in NE 2.9 mph 9 mph 85% 0 in 0 W/m2
01:16 53.4 °F 49.1 °F 29.9 in WNW 6.9 mph 15 mph 85% 0 in 0 W/m2
01:21 53.4 °F 49.1 °F 29.9 in NW 4.9 mph 5 mph 85% 0 in 0 W/m2
01:26 53.4 °F 48.7 °F 29.9 in WSW 4 mph 11 mph 84% 0 in 0 W/m2
01:31 53.4 °F 48.7 °F 29.9 in SW 6.9 mph 15 mph 84% 0 in 0 W/m2
01:36 53.8 °F 48.7 °F 29.9 in NW 8.1 mph 9 mph 83% 0 in 0 W/m2
01:41 53.8 °F 48.7 °F 29.9 in WNW 6.9 mph 14 mph 83% 0 in 0 W/m2
01:47 53.8 °F 48.4 °F 29.9 in NNW 4 mph 4 mph 82% 0 in 0 W/m2
01:52 54 °F 48.6 °F 29.9 in WNW 4 mph 9 mph 82% 0 in 0 W/m2
01:57 53.8 °F 48.4 °F 29.9 in North 4.9 mph 11 mph 82% 0 in 0 W/m2
02:02 54 °F 48.6 °F 29.9 in West 8.9 mph 15 mph 82% 0 in 0 W/m2
02:07 54 °F 48.6 °F 29.9 in WSW 4.9 mph 11 mph 82% 0 in 0 W/m2
02:12 53.8 °F 48.4 °F 29.9 in WNW 6 mph 15 mph 82% 0 in 0 W/m2
02:17 53.6 °F 48.6 °F 29.9 in West 6 mph 14 mph 83% 0 in 0 W/m2
02:22 53.4 °F 48.7 °F 29.9 in WNW 2 mph 15 mph 84% 0 in 0 W/m2
02:27 53.2 °F 48.6 °F 29.9 in WNW 2.9 mph 10 mph 84% 0.01 in 0 W/m2
02:32 52.9 °F 48.7 °F 29.9 in West 2.9 mph 10 mph 86% 0.02 in 0 W/m2
02:37 52.5 °F 48.7 °F 29.9 in North 2 mph 10 mph 87% 0.02 in 0 W/m2
02:42 52.3 °F 48.9 °F 29.9 in West 6 mph 6 mph 88% 0.03 in 0 W/m2
02:47 52.2 °F 49.1 °F 29.9 in WSW 6.9 mph 13 mph 89% 0.03 in 0 W/m2
02:52 51.1 °F 47.3 °F 29.9 in West 10.1 mph 16 mph 87% 0.13 in 0 W/m2
02:57 50.4 °F 46.9 °F 29.9 in WNW 8.1 mph 13 mph 88% 0.14 in 0 W/m2
03:02 50 °F 47.1 °F 29.9 in West 6 mph 11 mph 90% 0.16 in 0 W/m2
03:07 49.8 °F 46.9 °F 29.9 in West 4 mph 10 mph 90% 0.2 in 0 W/m2
03:12 49.6 °F 47.1 °F 29.9 in West 6.9 mph 14 mph 91% 0.24 in 0 W/m2
03:17 49.5 °F 46.9 °F 29.9 in WNW 8.1 mph 10 mph 91% 0.25 in 0 W/m2
03:22 49.3 °F 47.1 °F 29.9 in NNW 14.1 mph 14 mph 92% 0.27 in 0 W/m2
03:27 49.3 °F 47.1 °F 29.9 in West 8.1 mph 17 mph 92% 0.28 in 0 W/m2
03:32 49.3 °F 46.8 °F 29.9 in West 6 mph 11 mph 91% 0.3 in 0 W/m2
03:37 48.9 °F 46.4 °F 29.9 in NW 8.9 mph 17 mph 91% 0.3 in 0 W/m2
03:42 48.7 °F 46.6 °F 29.9 in WNW 10.1 mph 15 mph 92% 0.31 in 0 W/m2
03:47 48.6 °F 46.4 °F 29.9 in West 4 mph 11 mph 92% 0.31 in 0 W/m2
03:52 48.6 °F 46.4 °F 29.9 in NNW 4 mph 15 mph 92% 0.23 in 0 W/m2
03:57 48.4 °F 46.2 °F 29.9 in WSW 8.1 mph 17 mph 92% 0.22 in 0 W/m2
04:02 48.6 °F 46.4 °F 29.9 in WNW 2 mph 10 mph 92% 0.2 in 0 W/m2
04:07 48.6 °F 46.4 °F 29.9 in WNW 4 mph 15 mph 92% 0.17 in 0 W/m2
04:12 48.6 °F 46.4 °F 29.9 in SSW 4 mph 11 mph 92% 0.15 in 0 W/m2
04:17 48.4 °F 46.2 °F 29.9 in West 2 mph 14 mph 92% 0.13 in 0 W/m2
04:22 48.4 °F 46.2 °F 29.9 in West 2 mph 4 mph 92% 0.13 in 0 W/m2
04:27 48.4 °F 46.2 °F 29.9 in WNW 2.9 mph 7 mph 92% 0.1 in 0 W/m2
04:32 48.4 °F 46.2 °F 29.9 in West 11 mph 11 mph 92% 0.09 in 0 W/m2
04:37 48.4 °F 46.2 °F 29.9 in SSW 2.9 mph 9 mph 92% 0.08 in 0 W/m2
04:42 48.4 °F 46.2 °F 29.9 in NW 2 mph 10 mph 92% 0.06 in 0 W/m2
04:47 48.4 °F 46.2 °F 29.9 in West 4 mph 11 mph 92% 0.06 in 0 W/m2
04:52 48.4 °F 46.2 °F 29.9 in SW 6.9 mph 9 mph 92% 0.05 in 0 W/m2
04:57 48.4 °F 46.2 °F 29.9 in West 2 mph 9 mph 92% 0.04 in 0 W/m2
05:02 48.4 °F 46.2 °F 29.9 in WSW 4 mph 11 mph 92% 0.04 in 0 W/m2
05:07 48.6 °F 46.4 °F 29.9 in NW 2 mph 8 mph 92% 0.03 in 0 W/m2
05:12 48.4 °F 46.2 °F 29.9 in NW 4 mph 4 mph 92% 0.02 in 0 W/m2
05:17 48.4 °F 46.2 °F 30 in NNE 2.9 mph 8 mph 92% 0.02 in 0 W/m2
05:22 48.4 °F 46.2 °F 30 in NNW 2 mph 4 mph 92% 0.01 in 0 W/m2
05:27 48.6 °F 46.4 °F 30 in WNW 2 mph 7 mph 92% 0.01 in 0 W/m2
05:33 48.6 °F 46.4 °F 30 in WNW 4.9 mph 12 mph 92% 0 in 0 W/m2
05:38 48.6 °F 46.4 °F 30 in West 11 mph 11 mph 92% 0 in 0 W/m2
05:43 48.7 °F 46.6 °F 30 in WNW 2 mph 12 mph 92% 0 in 0 W/m2
05:48 48.7 °F 46.6 °F 30 in WNW 2.9 mph 7 mph 92% 0 in 0 W/m2
05:53 48.7 °F 46.2 °F 30 in WNW 2 mph 8 mph 91% 0 in 0 W/m2
05:58 48.7 °F 46.2 °F 30 in WNW 4 mph 9 mph 91% 0 in 0 W/m2
06:03 48.7 °F 46.2 °F 30 in WSW 2.9 mph 4 mph 91% 0 in 0 W/m2
06:08 48.7 °F 46.2 °F 30 in West 2.9 mph 4 mph 91% 0 in 0 W/m2
06:13 48.7 °F 46.2 °F 30 in WSW 6.9 mph 8 mph 91% 0 in 0 W/m2
06:18 48.7 °F 46.6 °F 30 in SW 4 mph 8 mph 92% 0 in 0 W/m2
06:23 48.7 °F 46.6 °F 30 in West 2.9 mph 8 mph 92% 0 in 0 W/m2
06:28 48.9 °F 46.8 °F 30 in WSW 2.9 mph 8 mph 92% 0 in 0 W/m2
06:33 48.9 °F 46.8 °F 30 in WNW 4 mph 7 mph 92% 0 in 0 W/m2
06:38 49.1 °F 46.9 °F 30 in West 2 mph 8 mph 92% 0 in 0 W/m2
06:43 49.1 °F 46.9 °F 30 in West 2.9 mph 9 mph 92% 0 in 0 W/m2
06:48 49.1 °F 46.9 °F 30 in West 2.9 mph 7 mph 92% 0 in 0 W/m2
06:53 48.9 °F 46.8 °F 30 in WNW 2.9 mph 10 mph 92% 0 in 0 W/m2
06:58 48.9 °F 46.8 °F 30 in WNW 2 mph 4 mph 92% 0 in 0 W/m2
07:03 48.9 °F 46.8 °F 30 in WNW 8.1 mph 11 mph 92% 0 in 0 W/m2
07:08 49.1 °F 46.9 °F 30 in WSW 2.9 mph 5 mph 92% 0 in 0 W/m2
07:13 49.1 °F 46.9 °F 30 in WNW 2.9 mph 11 mph 92% 0 in 0 W/m2
07:18 49.3 °F 47.1 °F 30 in NW 2 mph 7 mph 92% 0 in 0 W/m2
07:23 49.3 °F 46.8 °F 30 in West 2.9 mph 6 mph 91% 0 in 5 W/m2
07:28 49.3 °F 46.8 °F 30 in West 6.9 mph 7 mph 91% 0 in 9 W/m2
07:33 49.5 °F 46.9 °F 30 in WNW 2.9 mph 10 mph 91% 0 in 11 W/m2
07:38 49.5 °F 46.9 °F 30 in WNW 2.9 mph 9 mph 91% 0 in 14 W/m2
07:43 49.5 °F 46.9 °F 30 in WSW 4.9 mph 11 mph 91% 0 in 21 W/m2
07:48 49.5 °F 46.9 °F 30 in West 2.9 mph 8 mph 91% 0 in 23 W/m2
07:53 49.5 °F 46.9 °F 30 in WNW 2.9 mph 11 mph 91% 0 in 25 W/m2
07:58 49.5 °F 46.9 °F 30 in WSW 4 mph 8 mph 91% 0 in 16 W/m2
08:03 49.6 °F 47.1 °F 30 in NW 2.9 mph 5 mph 91% 0 in 14 W/m2
08:08 49.6 °F 47.1 °F 30 in WNW 2 mph 2 mph 91% 0 in 21 W/m2
08:13 49.6 °F 47.1 °F 30 in WNW 2.9 mph 9 mph 91% 0 in 28 W/m2
08:18 49.6 °F 47.1 °F 30 in WNW 6.9 mph 10 mph 91% 0 in 28 W/m2
08:23 49.6 °F 47.1 °F 30.1 in NNW 0.9 mph 11 mph 91% 0 in 30 W/m2
08:28 49.8 °F 47.3 °F 30.1 in NNW 4 mph 6 mph 91% 0 in 33 W/m2
08:33 49.8 °F 47.3 °F 30.1 in WSW 6.9 mph 14 mph 91% 0 in 44 W/m2
08:38 49.8 °F 47.3 °F 30.1 in WNW 6.9 mph 8 mph 91% 0 in 47 W/m2
08:43 49.8 °F 47.3 °F 30.1 in NNW 2.9 mph 13 mph 91% 0 in 53 W/m2
08:48 49.8 °F 47.3 °F 30.1 in WNW 6.9 mph 7 mph 91% 0 in 53 W/m2
08:53 50 °F 47.5 °F 30.1 in West 2.9 mph 7 mph 91% 0 in 58 W/m2
08:58 50.2 °F 47.7 °F 30.1 in WNW 2 mph 7 mph 91% 0 in 49 W/m2
09:03 50.2 °F 47.7 °F 30.1 in Calm   4 mph 91% 0 in 51 W/m2
09:08 50.2 °F 47.7 °F 30.1 in West 2 mph 4 mph 91% 0 in 49 W/m2
09:13 50.4 °F 47.8 °F 30.1 in WSW 2.9 mph 10 mph 91% 0 in 56 W/m2
09:18 50.4 °F 47.8 °F 30.1 in WNW 2 mph 6 mph 91% 0 in 56 W/m2
09:23 50.5 °F 48 °F 30.1 in Calm   10 mph 91% 0 in 65 W/m2
09:28 50.5 °F 48 °F 30.1 in West 6.9 mph 9 mph 91% 0 in 79 W/m2
09:33 50.7 °F 47.8 °F 30.1 in North 2 mph 10 mph 90% 0 in 69 W/m2
09:38 50.7 °F 47.8 °F 30.1 in West 2 mph 7 mph 90% 0 in 67 W/m2
09:43 50.9 °F 48 °F 30.1 in West 2 mph 5 mph 90% 0 in 53 W/m2
09:48 50.9 °F 48 °F 30.1 in West 2 mph 3 mph 90% 0 in 70 W/m2
09:53 51.1 °F 48.2 °F 30.1 in WNW 4 mph 4 mph 90% 0 in 69 W/m2
09:58 51.1 °F 48.2 °F 30.1 in WNW 2 mph 9 mph 90% 0 in 69 W/m2
10:03 51.3 °F 48.4 °F 30.1 in WSW 2 mph 7 mph 90% 0 in 70 W/m2
10:08 51.3 °F 48.4 °F 30.1 in West 2.9 mph 9 mph 90% 0 in 65 W/m2
10:13 51.4 °F 48.6 °F 30.1 in West 6 mph 7 mph 90% 0 in 72 W/m2
10:18 51.4 °F 48.6 °F 30.1 in WNW 2 mph 7 mph 90% 0 in 81 W/m2
10:23 51.6 °F 48.7 °F 30.1 in East 2 mph 4 mph 90% 0 in 128 W/m2
10:28 51.8 °F 48.7 °F 30.1 in NW 4 mph 10 mph 89% 0 in 135 W/m2
10:33 52 °F 48.9 °F 30.1 in WNW 2 mph 8 mph 89% 0 in 100 W/m2
10:38 52.2 °F 48.7 °F 30.1 in WSW 2 mph 7 mph 88% 0 in 97 W/m2
10:43 52.2 °F 48.7 °F 30.1 in NNW 2.9 mph 6 mph 88% 0 in 134 W/m2
10:48 52.3 °F 48.9 °F 30.1 in WSW 4.9 mph 6 mph 88% 0 in 139 W/m2
10:53 52.3 °F 48.9 °F 30.1 in West 2.9 mph 6 mph 88% 0 in 137 W/m2
10:58 52.5 °F 49.1 °F 30.1 in WNW 4.9 mph 7 mph 88% 0 in 137 W/m2
11:03 52.7 °F 48.9 °F 30.1 in SW 4.9 mph 8 mph 87% 0 in 141 W/m2
11:08 52.9 °F 49.1 °F 30.1 in SW 2 mph 10 mph 87% 0 in 113 W/m2
11:13 52.9 °F 48.7 °F 30.1 in WSW 4 mph 8 mph 86% 0 in 137 W/m2
11:18 53.1 °F 48.9 °F 30.1 in NNW 2.9 mph 11 mph 86% 0 in 146 W/m2
11:23 53.1 °F 48.9 °F 30.1 in West 2 mph 6 mph 86% 0 in 105 W/m2
11:28 53.1 °F 48.7 °F 30.1 in WNW 2.9 mph 10 mph 85% 0 in 158 W/m2
11:33 53.2 °F 49.1 °F 30.1 in West 0.9 mph 6 mph 86% 0 in 197 W/m2
11:38 53.4 °F 49.1 °F 30.1 in NW 4.9 mph 8 mph 85% 0 in 185 W/m2
11:43 53.6 °F 49.3 °F 30.1 in WNW 2.9 mph 7 mph 85% 0 in 193 W/m2
11:48 53.8 °F 49.5 °F 30.1 in NW 2.9 mph 7 mph 85% 0 in 104 W/m2
11:53 53.8 °F 49.5 °F 30.1 in West 2 mph 5 mph 85% 0 in 72 W/m2
11:58 53.6 °F 49.3 °F 30.1 in WSW 0.9 mph 4 mph 85% 0 in 84 W/m2
12:03 53.4 °F 49.3 °F 30.1 in NNW 2.9 mph 4 mph 86% 0 in 83 W/m2
12:08 53.4 °F 49.3 °F 30.1 in SSE 2.9 mph 6 mph 86% 0 in 134 W/m2
12:13 53.4 °F 49.3 °F 30.1 in WNW 4 mph 6 mph 86% 0 in 162 W/m2
12:18 53.4 °F 49.3 °F 30.1 in NNW 0.9 mph 2 mph 86% 0 in 151 W/m2
12:23 53.6 °F 49.5 °F 30.1 in WNW 8.1 mph 8 mph 86% 0 in 176 W/m2
12:28 53.8 °F 49.5 °F 30.1 in WSW 0.9 mph 3 mph 85% 0 in 183 W/m2
12:33 53.8 °F 49.1 °F 30.1 in NW 2 mph 4 mph 84% 0 in 213 W/m2
12:38 54 °F 49.3 °F 30.1 in West 6.9 mph 9 mph 84% 0 in 158 W/m2
12:43 54 °F 49.6 °F 30.1 in WNW 4.9 mph 17 mph 85% 0 in 167 W/m2
12:48 53.6 °F 49.5 °F 30.1 in West 6 mph 7 mph 86% 0 in 165 W/m2
12:53 53.2 °F 49.5 °F 30.1 in West 2.9 mph 3 mph 87% 0 in 160 W/m2
12:58 53.1 °F 49.6 °F 30.1 in West 2 mph 4 mph 88% 0 in 204 W/m2
13:03 53.1 °F 49.8 °F 30.1 in NW 2 mph 4 mph 89% 0 in 181 W/m2
13:08 53.1 °F 49.8 °F 30.1 in WNW 2 mph 7 mph 89% 0 in 181 W/m2
13:13 53.2 °F 50.4 °F 30.1 in Calm   3 mph 90% 0 in 192 W/m2
13:18 53.2 °F 50 °F 30.1 in WNW 0.9 mph 7 mph 89% 0 in 253 W/m2
13:23 53.4 °F 50 °F 30.1 in WNW 0.9 mph 7 mph 88% 0 in 167 W/m2
13:28 53.8 °F 50.5 °F 30.1 in NNW 2.9 mph 6 mph 89% 0 in 156 W/m2
13:33 54 °F 50.5 °F 30.1 in NNW 0.9 mph 4 mph 88% 0 in 186 W/m2
13:38 54.1 °F 50.7 °F 30.1 in ESE 2.9 mph 3 mph 88% 0 in 149 W/m2
13:44 54.3 °F 50.5 °F 30.1 in NW 2 mph 10 mph 87% 0 in 230 W/m2
13:49 54.5 °F 50.7 °F 30.1 in NW 0.9 mph 4 mph 87% 0 in 223 W/m2
13:54 54.9 °F 50.7 °F 30.1 in WSW 4 mph 9 mph 86% 0 in 237 W/m2
13:59 55 °F 50.9 °F 30.1 in West 8.1 mph 9 mph 86% 0 in 163 W/m2
14:04 55 °F 50.5 °F 30.1 in NW 2 mph 9 mph 85% 0 in 132 W/m2
14:09 55 °F 50.5 °F 30.1 in West 4 mph 11 mph 85% 0 in 163 W/m2
14:14 55.2 °F 50.5 °F 30.1 in WNW 2 mph 6 mph 84% 0 in 149 W/m2
14:19 55.2 °F 50.5 °F 30.1 in WNW 8.9 mph 9 mph 84% 0 in 86 W/m2
14:24 55.2 °F 50.2 °F 30.1 in West 6.9 mph 8 mph 83% 0 in 69 W/m2
14:29 55.2 °F 50.2 °F 30.1 in West 2.9 mph 6 mph 83% 0 in 95 W/m2
14:34 55 °F 50 °F 30.1 in NNE 4 mph 14 mph 83% 0 in 95 W/m2
14:39 55 °F 50 °F 30.1 in WNW 4 mph 10 mph 83% 0 in 127 W/m2
14:44 55 °F 50 °F 30.1 in WNW 4 mph 14 mph 83% 0 in 134 W/m2
14:49 55 °F 50 °F 30.1 in West 8.1 mph 8 mph 83% 0 in 128 W/m2
14:54 55 °F 50 °F 30.1 in West 11 mph 14 mph 83% 0 in 97 W/m2
14:59 55 °F 50 °F 30.1 in WSW 2 mph 4 mph 83% 0 in 100 W/m2
15:04 55 °F 50 °F 30.1 in WSW 2.9 mph 9 mph 83% 0 in 118 W/m2
15:09 55 °F 50.4 °F 30.1 in WNW 2.9 mph 3 mph 84% 0 in 114 W/m2
15:14 55 °F 50.4 °F 30.1 in West 0.9 mph 9 mph 84% 0 in 70 W/m2
15:19 54.9 °F 50.4 °F 30.1 in West 0.9 mph 6 mph 85% 0 in 39 W/m2
15:24 54.3 °F 50.2 °F 30.1 in WNW 2.9 mph 9 mph 86% 0.01 in 28 W/m2
15:29 53.8 °F 50.4 °F 30.1 in Calm   4 mph 88% 0.02 in 51 W/m2
15:34 53.4 °F 50.5 °F 30.1 in West 0.9 mph 9 mph 90% 0.02 in 42 W/m2
15:39 53.2 °F 50.4 °F 30.1 in WSW 2.9 mph 8 mph 90% 0.02 in 46 W/m2
15:44 53.1 °F 50.5 °F 30.1 in WNW 2.9 mph 7 mph 91% 0.02 in 54 W/m2
15:49 52.5 °F 50 °F 30.1 in NNW 8.1 mph 11 mph 91% 0.03 in 49 W/m2
15:54 52.3 °F 49.8 °F 30.1 in WSW 2.9 mph 10 mph 91% 0.03 in 69 W/m2
15:59 52.3 °F 50 °F 30.1 in WSW 4.9 mph 11 mph 92% 0.03 in 77 W/m2
16:04 52.3 °F 50 °F 30.1 in WSW 2 mph 2 mph 92% 0.03 in 67 W/m2
16:09 52.3 °F 50 °F 30.1 in Calm   1 mph 92% 0.03 in 77 W/m2
16:14 52.3 °F 50.4 °F 30.1 in NW 0.9 mph 2 mph 93% 0.03 in 76 W/m2
16:19 52.5 °F 50.5 °F 30.1 in SSW 0.9 mph 2 mph 93% 0.03 in 56 W/m2
16:24 52.5 °F 50.5 °F 30.1 in WNW 2.9 mph 4 mph 93% 0.02 in 44 W/m2
16:29 52.5 °F 50.5 °F 30.1 in WNW 2 mph 2 mph 93% 0.02 in 46 W/m2
16:34 52.7 °F 50.4 °F 30.1 in Calm   3 mph 92% 0.02 in 47 W/m2
16:39 52.7 °F 50.4 °F 30.1 in Calm   2 mph 92% 0.01 in 30 W/m2
16:44 52.9 °F 50.5 °F 30.1 in Calm   1 mph 92% 0.01 in 26 W/m2
16:49 52.9 °F 50.5 °F 30.1 in NE 2 mph 2 mph 92% 0 in 19 W/m2
16:54 52.9 °F 50.5 °F 30.1 in NE 0.9 mph 2 mph 92% 0 in 18 W/m2
16:59 52.9 °F 50.5 °F 30.1 in Calm   3 mph 92% 0 in 14 W/m2
17:04 52.7 °F 50.4 °F 30.1 in Calm   2 mph 92% 0 in 14 W/m2
17:09 52.7 °F 50.4 °F 30.1 in Calm   2 mph 92% 0 in 9 W/m2
17:14 52.7 °F 50.4 °F 30.1 in Calm   2 mph 92% 0 in 5 W/m2
17:19 52.7 °F 50.4 °F 30.1 in ESE 0.9 mph 2 mph 92% 0 in 0 W/m2
17:24 52.7 °F 50.7 °F 30.1 in Calm     93% 0 in 0 W/m2
17:29 52.5 °F 50.2 °F 30.1 in Calm   1 mph 92% 0 in 0 W/m2
17:34 52.5 °F 50.5 °F 30.1 in Calm   2 mph 93% 0 in 0 W/m2
17:39 52.5 °F 50.5 °F 30.1 in SSE 0.9 mph 2 mph 93% 0 in 0 W/m2
17:44 52.3 °F 50.4 °F 30.1 in Calm   2 mph 93% 0.01 in 0 W/m2
17:49 52.3 °F 50.4 °F 30.1 in Calm   2 mph 93% 0.01 in 0 W/m2
17:54 52.3 °F 50.4 °F 30.1 in NE 0.9 mph 2 mph 93% 0.01 in 0 W/m2
17:59 52.3 °F 50.4 °F 30.1 in Calm   2 mph 93% 0.01 in 0 W/m2
18:04 52.3 °F 50.4 °F 30.1 in Calm   2 mph 93% 0.01 in 0 W/m2
18:09 52.3 °F 50.4 °F 30.1 in NW 0.9 mph 4 mph 93% 0.01 in 0 W/m2
18:14 52.3 °F 50.4 °F 30.1 in Calm   3 mph 93% 0.01 in 0 W/m2
18:19 52.5 °F 50.5 °F 30.1 in ESE 0.9 mph 2 mph 93% 0.02 in 0 W/m2
18:24 52.5 °F 50.5 °F 30.1 in Calm   1 mph 93% 0.02 in 0 W/m2
18:29 52.5 °F 50.5 °F 30.1 in East 2 mph 3 mph 93% 0.02 in 0 W/m2
18:34 52.3 °F 50.4 °F 30.1 in Calm   1 mph 93% 0.02 in 0 W/m2
18:39 52.5 °F 50.5 °F 30.1 in NE 0.9 mph 2 mph 93% 0.03 in 0 W/m2
18:44 52.3 °F 50.4 °F 30.1 in ESE 0.9 mph 4 mph 93% 0.02 in 0 W/m2
18:49 52.3 °F 50.4 °F 30.1 in North 0.9 mph 2 mph 93% 0.02 in 0 W/m2
18:54 52.3 °F 50.7 °F 30.1 in East 0.9 mph 1 mph 94% 0.03 in 0 W/m2
18:59 52.3 °F 50.7 °F 30.1 in Calm   3 mph 94% 0.04 in 0 W/m2
19:04 52.3 °F 50.7 °F 30.1 in Calm   3 mph 94% 0.04 in 0 W/m2
19:09 52.5 °F 50.9 °F 30.1 in West 0.9 mph 4 mph 94% 0.04 in 0 W/m2
19:14 52.5 °F 50.9 °F 30.1 in SW 2 mph 6 mph 94% 0.04 in 0 W/m2
19:19 52.5 °F 50.9 °F 30.1 in North 2 mph 3 mph 94% 0.03 in 0 W/m2
19:24 52.5 °F 50.9 °F 30.1 in North 0.9 mph 4 mph 94% 0.03 in 0 W/m2
19:29 52.5 °F 50.9 °F 30.1 in NNW 2.9 mph 4 mph 94% 0.02 in 0 W/m2
19:34 52.5 °F 50.5 °F 30.1 in North 0.9 mph 3 mph 93% 0.02 in 0 W/m2
19:39 52.5 °F 50.5 °F 30.1 in WNW 4.9 mph 8 mph 93% 0.02 in 0 W/m2
19:44 52.5 °F 50.5 °F 30.1 in SW 2 mph 2 mph 93% 0.02 in 0 W/m2
19:49 52.5 °F 50.5 °F 30.1 in NW 2.9 mph 4 mph 93% 0.02 in 0 W/m2
19:54 52.5 °F 50.9 °F 30.1 in WSW 6.9 mph 7 mph 94% 0.02 in 0 W/m2
19:59 52.5 °F 50.9 °F 30.1 in Calm   3 mph 94% 0.01 in 0 W/m2
20:04 52.5 °F 50.9 °F 30.1 in Calm   3 mph 94% 0.01 in 0 W/m2
20:09 52.5 °F 50.9 °F 30.1 in NNW 0.9 mph 5 mph 94% 0.01 in 0 W/m2
20:14 52.5 °F 50.9 °F 30.1 in Calm   2 mph 94% 0.01 in 0 W/m2
20:19 52.5 °F 50.9 °F 30.1 in Calm   3 mph 94% 0.01 in 0 W/m2
20:24 52.5 °F 50.9 °F 30.1 in West 0.9 mph 4 mph 94% 0.01 in 0 W/m2
20:30 52.5 °F 50.9 °F 30.1 in NE 2 mph 5 mph 94% 0.01 in 0 W/m2
20:35 52.5 °F 50.9 °F 30.1 in West 0.9 mph 1 mph 94% 0.01 in 0 W/m2
20:40 52.5 °F 50.9 °F 30.1 in SW 2 mph 3 mph 94% 0.01 in 0 W/m2
20:45 52.5 °F 50.9 °F 30.1 in NNW 2.9 mph 3 mph 94% 0 in 0 W/m2
20:50 52.5 °F 50.9 °F 30.1 in Calm   3 mph 94% 0 in 0 W/m2
20:55 52.7 °F 51.1 °F 30.1 in East 0.9 mph 3 mph 94% 0 in 0 W/m2
21:00 52.7 °F 51.1 °F 30.1 in ENE 2 mph 2 mph 94% 0 in 0 W/m2
21:06 52.9 °F 51.3 °F 30.1 in NW 0.9 mph 7 mph 94% 0 in 0 W/m2
21:11 52.9 °F 51.3 °F 30.1 in North 2 mph 5 mph 94% 0 in 0 W/m2
21:16 52.9 °F 51.3 °F 30.1 in WNW 2 mph 3 mph 94% 0 in 0 W/m2
21:21 52.9 °F 51.3 °F 30.1 in NNW 8.1 mph 8 mph 94% 0 in 0 W/m2
21:26 53.1 °F 51.4 °F 30.1 in Calm   9 mph 94% 0 in 0 W/m2
21:31 53.1 °F 51.4 °F 30.1 in North 0.9 mph 3 mph 94% 0 in 0 W/m2
21:36 53.1 °F 51.4 °F 30.1 in NNE 0.9 mph 9 mph 94% 0 in 0 W/m2
21:41 53.1 °F 51.4 °F 30.1 in Calm   2 mph 94% 0 in 0 W/m2
21:46 53.1 °F 51.4 °F 30.1 in North 2.9 mph 5 mph 94% 0 in 0 W/m2
21:51 53.2 °F 51.6 °F 30.1 in NW 6.9 mph 7 mph 94% 0 in 0 W/m2
21:56 53.2 °F 51.6 °F 30.1 in Calm   6 mph 94% 0 in 0 W/m2
22:01 53.4 °F 51.8 °F 30.1 in NNE 2.9 mph 4 mph 94% 0 in 0 W/m2
22:06 53.4 °F 51.8 °F 30.1 in West 2.9 mph 6 mph 94% 0 in 0 W/m2
22:11 53.4 °F 51.8 °F 30.1 in NNE 0.9 mph 1 mph 94% 0 in 0 W/m2
22:16 53.6 °F 52 °F 30.1 in WSW 2 mph 5 mph 94% 0 in 0 W/m2
22:21 53.6 °F 52 °F 30.1 in NW 4 mph 11 mph 94% 0 in 0 W/m2
22:26 53.8 °F 52.2 °F 30.1 in ESE 6 mph 6 mph 94% 0 in 0 W/m2
22:31 53.8 °F 52.2 °F 30.1 in South 2.9 mph 9 mph 94% 0 in 0 W/m2
22:36 54 °F 52.3 °F 30.1 in WNW 4 mph 9 mph 94% 0 in 0 W/m2
22:41 54 °F 52.3 °F 30.1 in NW 4.9 mph 10 mph 94% 0 in 0 W/m2
22:46 54 °F 52.3 °F 30.1 in Calm   5 mph 94% 0 in 0 W/m2
22:51 54 °F 52.3 °F 30.1 in NE 2 mph 10 mph 94% 0 in 0 W/m2
22:56 54.1 °F 52.5 °F 30.1 in WNW 2 mph 6 mph 94% 0 in 0 W/m2
23:01 54.1 °F 52.5 °F 30.1 in WSW 0.9 mph 7 mph 94% 0 in 0 W/m2
23:06 54.1 °F 52.5 °F 30.1 in WSW 0.9 mph 8 mph 94% 0 in 0 W/m2
23:11 54.3 °F 52.7 °F 30.1 in NNW 4 mph 5 mph 94% 0 in 0 W/m2
23:16 54.3 °F 52.3 °F 30.1 in WNW 4 mph 9 mph 93% 0 in 0 W/m2
23:21 54.5 °F 52.5 °F 30.1 in Calm   2 mph 93% 0 in 0 W/m2
23:26 54.5 °F 52.5 °F 30.1 in West 0.9 mph 7 mph 93% 0 in 0 W/m2
23:31 54.5 °F 52.5 °F 30.1 in WSW 2.9 mph 4 mph 93% 0 in 0 W/m2
23:36 54.7 °F 53.1 °F 30.1 in NNW 0.9 mph 5 mph 94% 0 in 0 W/m2
23:41 54.7 °F 52.7 °F 30.1 in West 0.9 mph 5 mph 93% 0 in 0 W/m2
23:46 54.9 °F 52.9 °F 30.1 in East 0.9 mph 8 mph 93% 0 in 0 W/m2
23:51 54.9 °F 52.9 °F 30.1 in NE 2 mph 4 mph 93% 0 in 0 W/m2
23:56 54.9 °F 52.9 °F 30.1 in WNW 0.9 mph 4 mph 93% 0 in 0 W/m2
Juneau County Weather
Compliments of Weather Underground - 4 mb